Flight Track Log - Related Links

Times and Time Zones

All times are in EDT time to prevent confusion due to time zone crossing. See the ASQ5685 flight status page for this flight to view local times or setup timezone preferences in your user account.

Time Position Orientation Groundspeed Altitude Reporting Facility
EDT Latitude Longitude Course Direction KTS MPH feet Rate Location/Type
Mon 09:33:10 AM 33.6333 -84.4500 253° West 163 188 1,900  Level Atlanta TRACON
Mon 09:34:10 AM 33.6167 -84.5167 253° West 214 246 3,100 1,244 Climbing Atlanta TRACON
Mon 09:34:32 AM 33.6053 -84.5475 246° West 328 377 3,600 2,268 Climbing Atlanta Center
Mon 09:35:32 AM 33.5447 -84.5897 210° Southwest 272 313 6,200 2,500 Climbing Atlanta Center
Mon 09:36:32 AM 33.4697 -84.5692 167° South 282 325 8,600 2,200 Climbing Atlanta Center
Mon 09:37:32 AM 33.4553 -84.4719 100° East 280 322 10,600 1,500 Climbing Atlanta Center
Mon 09:38:32 AM 33.4558 -84.3575 90° East 318 366 11,600 1,200 Climbing Atlanta Center
Mon 09:39:32 AM 33.4956 -84.2531 65° Northeast 337 388 13,000 1,250 Climbing Atlanta Center
Mon 09:40:32 AM 33.5875 -84.1933 28° Northeast 328 377 14,100 1,000 Climbing Atlanta Center
Mon 09:41:32 AM 33.6814 -84.1286 30° Northeast 364 419 15,000 1,000 Climbing Atlanta Center
Mon 09:42:32 AM 33.7631 -84.0339 44° Northeast 389 448 16,100 1,050 Climbing Atlanta Center
Mon 09:43:32 AM 33.8233 -83.9189 58° Northeast 403 464 17,100 950 Climbing Atlanta Center
Mon 09:44:32 AM 33.8839 -83.8011 58° Northeast 409 471 18,000 850 Climbing Atlanta Center
Mon 09:45:32 AM 33.9378 -83.6983 58° Northeast 409 471 18,800 950 Climbing Atlanta Center
Mon 09:46:32 AM 34.0083 -83.5903 52° Northeast 414 476 19,900 950 Climbing Atlanta Center
Mon 09:47:32 AM 34.0747 -83.4819 53° Northeast 404 465 20,700 800 Climbing Atlanta Center
Mon 09:48:32 AM 34.1453 -83.3711 52° Northeast 409 471 21,500 800 Climbing Atlanta Center
Mon 09:49:32 AM 34.2156 -83.2600 53° Northeast 414 476 22,300 750 Climbing Atlanta Center
Mon 09:50:32 AM 34.2836 -83.1464 54° Northeast 414 476 23,000 600 Climbing Atlanta Center
Mon 09:51:32 AM 34.3536 -83.0297 54° Northeast 419 482 23,500 500 Climbing Atlanta Center
Mon 09:52:32 AM 34.4381 -82.9028 51° Northeast 427 491 24,000 500 Climbing Atlanta Center
Mon 09:53:32 AM 34.4956 -82.8039 55° Northeast 439 505 24,500 550 Climbing Atlanta Center
Mon 09:54:32 AM 34.5839 -82.6636 53° Northeast 439 505 25,100 500 Climbing Atlanta Center
Mon 09:55:32 AM 34.6494 -82.5567 53° Northeast 444 511 25,500 450 Climbing Atlanta Center
Mon 09:56:32 AM 34.7231 -82.4392 53° Northeast 439 505 26,000 550 Climbing Atlanta Center
Mon 09:57:32 AM 34.8067 -82.3008 54° Northeast 452 520 26,600 550 Climbing Atlanta Center
Mon 09:58:32 AM 34.8800 -82.1803 53° Northeast 452 520 27,100 500 Climbing Atlanta Center
Mon 09:59:32 AM 34.9472 -82.0750 52° Northeast 445 512 27,600 550 Climbing Atlanta Center
Mon 10:00:32 AM 35.0056 -81.9442 61° Northeast 440 506 28,200 650 Climbing Atlanta Center
Mon 10:01:32 AM 35.0133 -81.7919 86° East 431 496 28,900 600 Climbing Atlanta Center
Mon 10:02:32 AM 35.0717 -81.6683 60° Northeast 415 478 29,400 500 Climbing Atlanta Center
Mon 10:03:32 AM 35.1483 -81.5367 55° Northeast 421 484 29,900 500 Climbing Atlanta Center
Mon 10:04:32 AM 35.2167 -81.4153 55° Northeast 433 498 30,400 500 Climbing Atlanta Center
Mon 10:05:32 AM 35.2869 -81.2958 54° Northeast 426 490 30,900 300 Climbing Atlanta Center
Mon 10:06:32 AM 35.3572 -81.1739 55° Northeast 431 496 31,000 50 Climbing Atlanta Center
Mon 10:07:32 AM 35.4272 -81.0492 55° Northeast 437 503 31,000  Level Atlanta Center
Mon 10:08:32 AM 35.5033 -80.9214 54° Northeast 449 517 31,000  Level Atlanta Center
Mon 10:09:32 AM 35.5775 -80.7958 54° Northeast 459 528 31,000  Level Atlanta Center
Mon 10:10:32 AM 35.6511 -80.6678 55° Northeast 454 522 31,000  Level Atlanta Center
Mon 10:12:18 AM 35.7714 -80.4561 55° Northeast 463 533 31,000  Level Washington Center
Mon 10:13:16 AM 35.8411 -80.3297 56° Northeast 457 526 31,000  Level Washington Center
Mon 10:14:16 AM 35.9169 -80.2008 54° Northeast 452 520 31,000  Level Washington Center
Mon 10:15:17 AM 35.9972 -80.0669 53° Northeast 452 520 31,000  Level Washington Center
Mon 10:16:17 AM 36.0686 -79.9400 55° Northeast 446 513 31,000  Level Washington Center
Mon 10:17:15 AM 36.1400 -79.8128 55° Northeast 446 513 31,000  Level Washington Center
Mon 10:18:16 AM 36.2044 -79.6978 55° Northeast 451 519 31,000  Level Washington Center
Mon 10:19:16 AM 36.2844 -79.5550 55° Northeast 451 519 31,000 -198 Level Washington Center
Mon 10:20:17 AM 36.3594 -79.4300 53° Northeast 451 519 30,600 -738 Descending Washington Center
Mon 10:21:18 AM 36.4239 -79.3067 57° Northeast 451 519 29,500 -1,190 Descending Washington Center
Mon 10:22:18 AM 36.5217 -79.1794 46° Northeast 464 534 28,200 -1,322 Descending Washington Center
Mon 10:23:16 AM 36.6128 -79.0644 45° Northeast 464 534 26,900 -1,261 Descending Washington Center
Mon 10:24:17 AM 36.7039 -78.9392 48° Northeast 464 534 25,700 -934 Descending Washington Center
Mon 10:25:18 AM 36.7864 -78.8286 47° Northeast 470 541 25,000 -353 Descending Washington Center
Mon 10:26:16 AM 36.8792 -78.7053 47° Northeast 470 541 25,000  Level Washington Center
Mon 10:27:16 AM 36.9678 -78.5892 46° Northeast 470 541 25,000  Level Washington Center
Mon 10:28:17 AM 37.0750 -78.4631 43° Northeast 462 532 25,000 -500 Level Washington Center
Mon 10:29:16 AM 37.1817 -78.3631 37° Northeast 462 532 24,000 -1,008 Descending Washington Center
Mon 10:30:16 AM 37.2944 -78.2653 35° Northeast 481 554 23,000 -992 Descending Washington Center
Mon 10:31:17 AM 37.4011 -78.1669 36° Northeast 486 559 22,000 -496 Descending Washington Center
Mon 10:32:17 AM 37.5053 -78.0711 36° Northeast 475 547 22,000  Level Washington Center
Mon 10:33:18 AM 37.6114 -77.9747 36° Northeast 470 541 22,000 -496 Level Washington Center
Mon 10:34:18 AM 37.7136 -77.8783 37° Northeast 464 534 21,000 -1,897 Descending Washington Center
Mon 10:35:15 AM 37.8111 -77.7892 36° Northeast 459 528 18,300 -2,644 Descending Washington Center
Mon 10:36:16 AM 37.9064 -77.7025 36° Northeast 438 504 15,800 -2,459 Descending Washington Center
Mon 10:37:17 AM 37.9978 -77.6156 37° Northeast 420 483 13,300 -2,479 Descending Washington Center
Mon 10:38:17 AM 38.0781 -77.5464 34° Northeast 407 468 10,800 -1,700 Descending Washington Center
Mon 10:39:17 AM 38.1606 -77.4694 36° Northeast 385 443 9,900 -559 Descending Washington Center
Mon 10:40:15 AM 38.2344 -77.4183 29° Northeast 339 390 9,700 -756 Descending Washington Center
Mon 10:41:16 AM 38.3081 -77.3725 26° Northeast 306 352 8,400 -1,033 Descending Washington Center
Mon 10:42:17 AM 38.3833 -77.3583 North 280 322 7,600 -942 Descending Washington Center
Mon 10:43:17 AM 38.4606 -77.3603 359° North 270 311 6,500 -992 Descending Washington Center
Mon 10:44:18 AM 38.5356 -77.3647 357° North 270 311 5,600 -857 Descending Washington Center
Mon 10:45:16 AM 38.6106 -77.3664 359° North 270 311 4,800 -480 Descending Washington Center
Mon 10:45:58 AM 38.6667 -77.3667 360° North 267 307 4,800 -333 Level Potomac TRACON
Mon 10:47:04 AM 38.7500 -77.3500 North 262 302 4,200 -381 Descending Potomac TRACON
Mon 10:48:04 AM 38.8333 -77.3500 360° North 261 300 4,000 -104 Descending Potomac TRACON
Mon 10:48:59 AM 38.9000 -77.3500 360° North 259 298 4,000 -347 Level Potomac TRACON
Mon 10:50:05 AM 38.9667 -77.3500 360° North 242 278 3,300 -476 Descending Potomac TRACON
Mon 10:51:05 AM 39.0333 -77.3500 360° North 200 230 3,000 -300 Descending Potomac TRACON

Login

Don't have an account? Register now (free) for customized features, flight alerts, and more!